SIA738 VCBI-VRMM
Flight info
| Callsign | SIA738 |
|---|---|
| Flight time | 1h 6m |
| Altitude | 36000 |
| Route | LALUM DCT HOKEY HOKEY1B |
| Aircraft | A388/J-SADE2E3FGHIJ3J4J5M1RWXY/LB1D1 |
Departure
| Time | 2026-04-26 02:09 |
|---|---|
| Airport | Bandaranaike International Colombo Airport (VCBI) |
Arrival
| Time | 2026-04-26 03:15 |
|---|---|
| Airport | Velana International Airport (VRMM) |
| Time | Latitude | Longitude | Altitude | Speed | Heading |
|---|---|---|---|---|---|
| 2026-04-26 02:00 | 7.17707 | 79.88489 | 43 ft | 1 kts | 217° |
| 2026-04-26 02:01 | 7.17714 | 79.88494 | 42 ft | 4 kts | 217° |
| 2026-04-26 02:01 | 7.17735 | 79.88511 | 42 ft | 4 kts | 217° |
| 2026-04-26 02:01 | 7.17757 | 79.88528 | 40 ft | 4 kts | 218° |
| 2026-04-26 02:01 | 7.17772 | 79.88541 | 41 ft | 4 kts | 243° |
| 2026-04-26 02:02 | 7.17771 | 79.88559 | 39 ft | 3 kts | 306° |
| 2026-04-26 02:02 | 7.17755 | 79.88580 | 40 ft | 4 kts | 307° |
| 2026-04-26 02:02 | 7.17747 | 79.88591 | 40 ft | 1 kts | 307° |
| 2026-04-26 02:04 | 7.17755 | 79.88582 | 40 ft | 5 kts | 307° |
| 2026-04-26 02:04 | 7.17787 | 79.88539 | 42 ft | 10 kts | 307° |
| 2026-04-26 02:05 | 7.17840 | 79.88468 | 43 ft | 15 kts | 308° |
| 2026-04-26 02:05 | 7.17921 | 79.88453 | 44 ft | 14 kts | 31° |
| 2026-04-26 02:05 | 7.18004 | 79.88517 | 43 ft | 17 kts | 38° |
| 2026-04-26 02:05 | 7.18111 | 79.88602 | 43 ft | 22 kts | 38° |
| 2026-04-26 02:06 | 7.18233 | 79.88695 | 43 ft | 22 kts | 37° |
| 2026-04-26 02:06 | 7.18357 | 79.88791 | 43 ft | 23 kts | 37° |
| 2026-04-26 02:06 | 7.18485 | 79.88886 | 44 ft | 23 kts | 37° |
| 2026-04-26 02:06 | 7.18612 | 79.88986 | 44 ft | 23 kts | 38° |
| 2026-04-26 02:07 | 7.18743 | 79.89089 | 44 ft | 24 kts | 38° |
| 2026-04-26 02:07 | 7.18877 | 79.89192 | 43 ft | 24 kts | 36° |
| 2026-04-26 02:07 | 7.19010 | 79.89292 | 43 ft | 24 kts | 38° |
| 2026-04-26 02:07 | 7.19144 | 79.89396 | 43 ft | 24 kts | 37° |
| 2026-04-26 02:08 | 7.19243 | 79.89381 | 43 ft | 15 kts | 314° |
| 2026-04-26 02:08 | 7.19279 | 79.89286 | 43 ft | 15 kts | 252° |
| 2026-04-26 02:08 | 7.19196 | 79.89208 | 44 ft | 21 kts | 216° |
| 2026-04-26 02:08 | 7.18889 | 79.88972 | 46 ft | 96 kts | 217° |
| 2026-04-26 02:09 | 7.18176 | 79.88423 | 44 ft | 156 kts | 217° |
| 2026-04-26 02:09 | 7.17231 | 79.87697 | 298 ft | 174 kts | 217° |
| 2026-04-26 02:09 | 7.16276 | 79.86975 | 895 ft | 171 kts | 216° |
| 2026-04-26 02:09 | 7.15339 | 79.86259 | 1493 ft | 168 kts | 218° |
| 2026-04-26 02:10 | 7.14401 | 79.85524 | 1933 ft | 178 kts | 218° |
| 2026-04-26 02:10 | 7.13371 | 79.84721 | 2150 ft | 197 kts | 218° |
| 2026-04-26 02:10 | 7.12237 | 79.83844 | 2326 ft | 214 kts | 218° |
| 2026-04-26 02:10 | 7.10995 | 79.82889 | 2458 ft | 237 kts | 217° |
| 2026-04-26 02:11 | 7.09640 | 79.81850 | 2802 ft | 259 kts | 217° |
| 2026-04-26 02:11 | 7.08156 | 79.80713 | 3382 ft | 272 kts | 217° |
| 2026-04-26 02:11 | 7.06646 | 79.79554 | 4230 ft | 274 kts | 216° |
| 2026-04-26 02:11 | 7.05115 | 79.78379 | 5019 ft | 279 kts | 216° |
| 2026-04-26 02:12 | 7.03560 | 79.77187 | 5810 ft | 283 kts | 216° |
| 2026-04-26 02:12 | 7.01982 | 79.75976 | 6572 ft | 287 kts | 216° |
| 2026-04-26 02:12 | 7.00386 | 79.74752 | 7324 ft | 290 kts | 216° |
| 2026-04-26 02:12 | 6.98774 | 79.73515 | 8073 ft | 293 kts | 216° |
| 2026-04-26 02:13 | 6.97145 | 79.72266 | 8830 ft | 296 kts | 216° |
| 2026-04-26 02:13 | 6.95495 | 79.70999 | 9608 ft | 299 kts | 216° |
| 2026-04-26 02:13 | 6.93825 | 79.69719 | 10258 ft | 305 kts | 216° |
| 2026-04-26 02:13 | 6.92075 | 79.68379 | 10484 ft | 326 kts | 216° |
| 2026-04-26 02:14 | 6.90214 | 79.66953 | 10662 ft | 346 kts | 216° |
| 2026-04-26 02:14 | 6.88264 | 79.65457 | 11040 ft | 356 kts | 217° |
| 2026-04-26 02:14 | 6.86513 | 79.63677 | 11641 ft | 361 kts | 231° |
| 2026-04-26 02:14 | 6.85037 | 79.61614 | 12236 ft | 366 kts | 234° |
| 2026-04-26 02:15 | 6.83599 | 79.59527 | 12830 ft | 370 kts | 234° |
| 2026-04-26 02:15 | 6.82082 | 79.57424 | 13443 ft | 374 kts | 232° |
| 2026-04-26 02:15 | 6.80501 | 79.55331 | 14021 ft | 377 kts | 231° |
| 2026-04-26 02:15 | 6.78883 | 79.53244 | 14605 ft | 379 kts | 231° |
| 2026-04-26 02:16 | 6.77241 | 79.51153 | 15169 ft | 382 kts | 231° |
| 2026-04-26 02:16 | 6.75587 | 79.49053 | 15738 ft | 384 kts | 231° |
| 2026-04-26 02:16 | 6.73914 | 79.46931 | 16304 ft | 387 kts | 231° |
| 2026-04-26 02:16 | 6.72234 | 79.44798 | 16849 ft | 390 kts | 231° |
| 2026-04-26 02:17 | 6.70542 | 79.42650 | 17417 ft | 393 kts | 231° |
| 2026-04-26 02:17 | 6.68838 | 79.40486 | 17942 ft | 396 kts | 231° |
| 2026-04-26 02:17 | 6.67119 | 79.38302 | 18417 ft | 399 kts | 231° |
| 2026-04-26 02:17 | 6.65415 | 79.36137 | 18861 ft | 401 kts | 231° |
| 2026-04-26 02:18 | 6.63673 | 79.33925 | 19323 ft | 404 kts | 231° |
| 2026-04-26 02:18 | 6.61924 | 79.31704 | 19751 ft | 407 kts | 231° |
| 2026-04-26 02:18 | 6.60162 | 79.29467 | 20190 ft | 409 kts | 231° |
| 2026-04-26 02:18 | 6.58389 | 79.27217 | 20626 ft | 412 kts | 231° |
| 2026-04-26 02:19 | 6.56609 | 79.24957 | 21052 ft | 414 kts | 231° |
| 2026-04-26 02:19 | 6.54813 | 79.22678 | 21468 ft | 417 kts | 231° |
| 2026-04-26 02:19 | 6.53007 | 79.20386 | 21892 ft | 419 kts | 231° |
| 2026-04-26 02:19 | 6.51191 | 79.18082 | 22305 ft | 422 kts | 231° |
| 2026-04-26 02:20 | 6.49365 | 79.15765 | 22708 ft | 424 kts | 231° |
| 2026-04-26 02:20 | 6.47526 | 79.13432 | 23120 ft | 427 kts | 231° |
| 2026-04-26 02:20 | 6.45675 | 79.11086 | 23511 ft | 429 kts | 231° |
| 2026-04-26 02:20 | 6.43813 | 79.08724 | 23857 ft | 431 kts | 231° |
| 2026-04-26 02:21 | 6.41947 | 79.06359 | 24191 ft | 433 kts | 231° |
| 2026-04-26 02:21 | 6.40067 | 79.03976 | 24566 ft | 434 kts | 230° |
| 2026-04-26 02:21 | 6.38186 | 79.01591 | 24906 ft | 436 kts | 230° |
| 2026-04-26 02:21 | 6.36314 | 78.99218 | 25239 ft | 438 kts | 230° |
| 2026-04-26 02:22 | 6.34414 | 78.96811 | 25587 ft | 440 kts | 230° |
| 2026-04-26 02:22 | 6.32503 | 78.94389 | 25903 ft | 443 kts | 230° |
| 2026-04-26 02:22 | 6.30583 | 78.91957 | 26253 ft | 445 kts | 230° |
| 2026-04-26 02:22 | 6.28765 | 78.89426 | 26592 ft | 449 kts | 237° |
| 2026-04-26 02:23 | 6.27252 | 78.86669 | 26956 ft | 452 kts | 243° |
| 2026-04-26 02:23 | 6.25946 | 78.83780 | 27318 ft | 455 kts | 244° |
| 2026-04-26 02:23 | 6.24621 | 78.80884 | 27686 ft | 457 kts | 244° |
| 2026-04-26 02:23 | 6.23277 | 78.77973 | 28078 ft | 460 kts | 243° |
| 2026-04-26 02:24 | 6.21921 | 78.75040 | 28461 ft | 463 kts | 243° |
| 2026-04-26 02:24 | 6.20561 | 78.72097 | 28878 ft | 466 kts | 243° |
| 2026-04-26 02:24 | 6.19195 | 78.69137 | 29304 ft | 469 kts | 243° |
| 2026-04-26 02:24 | 6.17820 | 78.66156 | 29756 ft | 471 kts | 243° |
| 2026-04-26 02:25 | 6.16456 | 78.63200 | 30144 ft | 474 kts | 243° |
| 2026-04-26 02:25 | 6.15062 | 78.60179 | 30569 ft | 476 kts | 243° |
| 2026-04-26 02:25 | 6.13667 | 78.57157 | 31009 ft | 477 kts | 243° |
| 2026-04-26 02:25 | 6.12319 | 78.54094 | 31432 ft | 480 kts | 245° |
| 2026-04-26 02:26 | 6.11038 | 78.50990 | 31848 ft | 482 kts | 246° |
| 2026-04-26 02:26 | 6.09764 | 78.47867 | 32260 ft | 484 kts | 246° |
| 2026-04-26 02:26 | 6.08478 | 78.44735 | 32686 ft | 486 kts | 246° |
| 2026-04-26 02:26 | 6.07176 | 78.41591 | 33094 ft | 488 kts | 245° |
| 2026-04-26 02:27 | 6.05863 | 78.38437 | 33512 ft | 490 kts | 245° |
| 2026-04-26 02:27 | 6.04542 | 78.35274 | 33918 ft | 492 kts | 245° |
| 2026-04-26 02:27 | 6.03212 | 78.32092 | 34283 ft | 494 kts | 245° |
| 2026-04-26 02:27 | 6.01882 | 78.28913 | 34727 ft | 494 kts | 245° |
| 2026-04-26 02:28 | 6.00555 | 78.25738 | 35265 ft | 491 kts | 245° |
| 2026-04-26 02:28 | 5.99248 | 78.22612 | 35772 ft | 489 kts | 245° |
| 2026-04-26 02:28 | 5.97934 | 78.19470 | 35889 ft | 487 kts | 245° |
| 2026-04-26 02:29 | 5.95297 | 78.13168 | 35887 ft | 491 kts | 245° |
| 2026-04-26 02:29 | 5.93099 | 78.07919 | 35887 ft | 490 kts | 245° |
| 2026-04-26 02:30 | 5.90457 | 78.01606 | 35885 ft | 490 kts | 245° |
| 2026-04-26 02:30 | 5.87810 | 77.95286 | 35891 ft | 490 kts | 245° |
| 2026-04-26 02:31 | 5.85167 | 77.88978 | 35888 ft | 489 kts | 245° |
| 2026-04-26 02:31 | 5.82527 | 77.82679 | 35878 ft | 489 kts | 245° |
| 2026-04-26 02:32 | 5.79891 | 77.76394 | 35874 ft | 488 kts | 245° |
| 2026-04-26 02:32 | 5.77260 | 77.70121 | 35869 ft | 487 kts | 245° |
| 2026-04-26 02:33 | 5.74628 | 77.63847 | 35867 ft | 487 kts | 245° |
| 2026-04-26 02:33 | 5.71997 | 77.57580 | 35868 ft | 487 kts | 245° |
| 2026-04-26 02:34 | 5.69383 | 77.51354 | 35863 ft | 487 kts | 245° |
| 2026-04-26 02:34 | 5.66752 | 77.45091 | 35864 ft | 487 kts | 245° |
| 2026-04-26 02:35 | 5.64118 | 77.38822 | 35864 ft | 487 kts | 245° |
| 2026-04-26 02:35 | 5.61484 | 77.32554 | 35864 ft | 487 kts | 245° |
| 2026-04-26 02:36 | 5.58850 | 77.26290 | 35870 ft | 487 kts | 245° |
| 2026-04-26 02:36 | 5.56225 | 77.20050 | 35873 ft | 488 kts | 245° |
| 2026-04-26 02:37 | 5.53584 | 77.13772 | 35877 ft | 489 kts | 245° |
| 2026-04-26 02:37 | 5.50935 | 77.07480 | 35887 ft | 489 kts | 245° |
| 2026-04-26 02:38 | 5.48285 | 77.01184 | 35888 ft | 490 kts | 245° |
| 2026-04-26 02:38 | 5.45629 | 76.94879 | 35890 ft | 490 kts | 245° |
| 2026-04-26 02:39 | 5.42970 | 76.88568 | 35894 ft | 490 kts | 245° |
| 2026-04-26 02:39 | 5.40315 | 76.82269 | 35898 ft | 490 kts | 245° |
| 2026-04-26 02:40 | 5.37663 | 76.75977 | 35897 ft | 489 kts | 245° |
| 2026-04-26 02:40 | 5.35009 | 76.69684 | 35891 ft | 489 kts | 245° |
| 2026-04-26 02:41 | 5.32376 | 76.63443 | 35887 ft | 488 kts | 245° |
| 2026-04-26 02:41 | 5.29727 | 76.57166 | 35884 ft | 488 kts | 245° |
| 2026-04-26 02:42 | 5.27081 | 76.50899 | 35883 ft | 488 kts | 245° |
| 2026-04-26 02:42 | 5.24437 | 76.44637 | 35890 ft | 487 kts | 244° |
| 2026-04-26 02:43 | 5.20470 | 76.35248 | 35886 ft | 487 kts | 244° |
| 2026-04-26 02:43 | 5.17827 | 76.28992 | 35882 ft | 486 kts | 244° |
| 2026-04-26 02:44 | 5.15183 | 76.22739 | 35873 ft | 487 kts | 244° |
| 2026-04-26 02:44 | 5.12555 | 76.16524 | 35877 ft | 488 kts | 244° |
| 2026-04-26 02:45 | 5.10111 | 76.10174 | 35894 ft | 489 kts | 250° |
| 2026-04-26 02:45 | 5.08128 | 76.03635 | 35891 ft | 489 kts | 250° |
| 2026-04-26 02:46 | 5.06122 | 75.97111 | 35890 ft | 489 kts | 250° |
| 2026-04-26 02:46 | 5.04117 | 75.90593 | 35886 ft | 489 kts | 250° |
| 2026-04-26 02:47 | 5.02110 | 75.84066 | 35887 ft | 489 kts | 250° |
| 2026-04-26 02:47 | 5.00106 | 75.77552 | 35888 ft | 489 kts | 250° |
| 2026-04-26 02:48 | 4.98104 | 75.71049 | 35892 ft | 488 kts | 250° |
| 2026-04-26 02:48 | 4.96101 | 75.64542 | 35887 ft | 488 kts | 250° |
| 2026-04-26 02:49 | 4.94099 | 75.58041 | 35887 ft | 487 kts | 250° |
| 2026-04-26 02:49 | 4.92111 | 75.51587 | 35889 ft | 487 kts | 250° |
| 2026-04-26 02:50 | 4.90109 | 75.45093 | 35880 ft | 487 kts | 250° |
| 2026-04-26 02:50 | 4.88111 | 75.38611 | 35834 ft | 486 kts | 250° |
| 2026-04-26 02:51 | 4.87118 | 75.35392 | 35611 ft | 481 kts | 250° |
| 2026-04-26 02:51 | 4.86130 | 75.32194 | 35379 ft | 481 kts | 250° |
| 2026-04-26 02:51 | 4.85138 | 75.28988 | 35149 ft | 482 kts | 250° |
| 2026-04-26 02:51 | 4.84142 | 75.25770 | 34902 ft | 484 kts | 250° |
| 2026-04-26 02:52 | 4.83146 | 75.22546 | 34330 ft | 484 kts | 250° |
| 2026-04-26 02:52 | 4.82142 | 75.19303 | 33402 ft | 489 kts | 250° |
| 2026-04-26 02:52 | 4.81148 | 75.16055 | 32678 ft | 486 kts | 250° |
| 2026-04-26 02:52 | 4.80168 | 75.12822 | 31973 ft | 484 kts | 250° |
| 2026-04-26 02:53 | 4.79089 | 75.09640 | 31276 ft | 479 kts | 243° |
| 2026-04-26 02:53 | 4.77472 | 75.06741 | 30612 ft | 473 kts | 232° |
| 2026-04-26 02:53 | 4.75420 | 75.04191 | 29948 ft | 469 kts | 227° |
| 2026-04-26 02:53 | 4.73337 | 75.01694 | 29378 ft | 463 kts | 228° |
| 2026-04-26 02:54 | 4.71325 | 74.99265 | 29066 ft | 454 kts | 228° |
| 2026-04-26 02:54 | 4.69319 | 74.96832 | 28806 ft | 452 kts | 228° |
| 2026-04-26 02:54 | 4.67314 | 74.94397 | 28551 ft | 453 kts | 228° |
| 2026-04-26 02:54 | 4.65311 | 74.91961 | 28297 ft | 452 kts | 229° |
| 2026-04-26 02:55 | 4.63311 | 74.89528 | 28041 ft | 451 kts | 229° |
| 2026-04-26 02:55 | 4.61322 | 74.87108 | 27802 ft | 449 kts | 229° |
| 2026-04-26 02:55 | 4.59339 | 74.84696 | 27567 ft | 448 kts | 229° |
| 2026-04-26 02:55 | 4.57365 | 74.82294 | 27312 ft | 446 kts | 229° |
| 2026-04-26 02:56 | 4.55391 | 74.79894 | 27062 ft | 445 kts | 229° |
| 2026-04-26 02:56 | 4.53424 | 74.77502 | 26822 ft | 444 kts | 229° |
| 2026-04-26 02:56 | 4.51466 | 74.75121 | 26585 ft | 442 kts | 229° |
| 2026-04-26 02:56 | 4.49513 | 74.72746 | 26340 ft | 441 kts | 229° |
| 2026-04-26 02:57 | 4.47565 | 74.70378 | 26102 ft | 440 kts | 229° |
| 2026-04-26 02:57 | 4.45621 | 74.68015 | 25872 ft | 438 kts | 229° |
| 2026-04-26 02:57 | 4.43686 | 74.65663 | 25355 ft | 438 kts | 229° |
| 2026-04-26 02:57 | 4.41749 | 74.63309 | 24785 ft | 437 kts | 229° |
| 2026-04-26 02:58 | 4.39823 | 74.60969 | 24203 ft | 434 kts | 229° |
| 2026-04-26 02:58 | 4.37910 | 74.58643 | 23654 ft | 431 kts | 229° |
| 2026-04-26 02:58 | 4.36003 | 74.56326 | 22885 ft | 432 kts | 229° |
| 2026-04-26 02:58 | 4.34101 | 74.54016 | 22350 ft | 426 kts | 230° |
| 2026-04-26 02:59 | 4.32238 | 74.51752 | 21894 ft | 418 kts | 230° |
| 2026-04-26 02:59 | 4.30405 | 74.49509 | 21336 ft | 414 kts | 231° |
| 2026-04-26 02:59 | 4.28798 | 74.47123 | 20787 ft | 411 kts | 239° |
| 2026-04-26 02:59 | 4.27399 | 74.44639 | 20235 ft | 408 kts | 240° |
| 2026-04-26 03:00 | 4.25993 | 74.42176 | 19679 ft | 405 kts | 240° |
| 2026-04-26 03:00 | 4.24593 | 74.39741 | 19145 ft | 403 kts | 240° |
| 2026-04-26 03:00 | 4.23197 | 74.37316 | 18590 ft | 401 kts | 240° |
| 2026-04-26 03:00 | 4.21809 | 74.34904 | 18022 ft | 399 kts | 240° |
| 2026-04-26 03:01 | 4.20429 | 74.32505 | 17448 ft | 395 kts | 240° |
| 2026-04-26 03:01 | 4.19066 | 74.30132 | 16904 ft | 391 kts | 240° |
| 2026-04-26 03:01 | 4.17715 | 74.27783 | 16361 ft | 387 kts | 240° |
| 2026-04-26 03:01 | 4.16377 | 74.25455 | 15828 ft | 384 kts | 240° |
| 2026-04-26 03:02 | 4.15049 | 74.23145 | 15300 ft | 381 kts | 239° |
| 2026-04-26 03:02 | 4.13734 | 74.20857 | 14772 ft | 378 kts | 239° |
| 2026-04-26 03:02 | 4.12427 | 74.18584 | 14237 ft | 375 kts | 239° |
| 2026-04-26 03:02 | 4.11129 | 74.16326 | 13735 ft | 372 kts | 239° |
| 2026-04-26 03:03 | 4.09841 | 74.14087 | 13189 ft | 369 kts | 239° |
| 2026-04-26 03:03 | 4.08568 | 74.11873 | 12683 ft | 365 kts | 239° |
| 2026-04-26 03:03 | 4.07325 | 74.09712 | 12184 ft | 361 kts | 239° |
| 2026-04-26 03:03 | 4.06078 | 74.07543 | 11691 ft | 357 kts | 240° |
| 2026-04-26 03:04 | 4.04843 | 74.05397 | 11191 ft | 354 kts | 240° |
| 2026-04-26 03:04 | 4.03620 | 74.03270 | 10708 ft | 351 kts | 240° |
| 2026-04-26 03:04 | 4.02406 | 74.01160 | 10305 ft | 346 kts | 240° |
| 2026-04-26 03:04 | 4.01227 | 73.99110 | 10175 ft | 332 kts | 240° |
| 2026-04-26 03:05 | 4.00096 | 73.97145 | 10054 ft | 319 kts | 240° |
| 2026-04-26 03:05 | 3.99009 | 73.95257 | 9882 ft | 309 kts | 240° |
| 2026-04-26 03:05 | 3.97943 | 73.93403 | 9726 ft | 306 kts | 240° |
| 2026-04-26 03:05 | 3.96876 | 73.91548 | 9422 ft | 309 kts | 240° |
| 2026-04-26 03:06 | 3.95824 | 73.89716 | 9097 ft | 304 kts | 242° |
| 2026-04-26 03:06 | 3.95065 | 73.87736 | 8773 ft | 299 kts | 258° |
| 2026-04-26 03:06 | 3.94888 | 73.85708 | 8475 ft | 294 kts | 272° |
| 2026-04-26 03:06 | 3.94924 | 73.83673 | 8165 ft | 291 kts | 271° |
| 2026-04-26 03:07 | 3.94930 | 73.81661 | 7857 ft | 288 kts | 271° |
| 2026-04-26 03:07 | 3.94926 | 73.79669 | 7554 ft | 285 kts | 270° |
| 2026-04-26 03:07 | 3.94921 | 73.77689 | 7248 ft | 282 kts | 270° |
| 2026-04-26 03:07 | 3.94918 | 73.75731 | 6951 ft | 280 kts | 270° |
| 2026-04-26 03:08 | 3.94917 | 73.73788 | 6649 ft | 278 kts | 270° |
| 2026-04-26 03:08 | 3.94917 | 73.71852 | 6345 ft | 277 kts | 270° |
| 2026-04-26 03:08 | 3.94917 | 73.69928 | 6039 ft | 275 kts | 270° |
| 2026-04-26 03:08 | 3.94917 | 73.68022 | 5741 ft | 273 kts | 270° |
| 2026-04-26 03:09 | 3.94917 | 73.66128 | 5455 ft | 272 kts | 270° |
| 2026-04-26 03:09 | 3.94917 | 73.64205 | 5371 ft | 281 kts | 270° |
| 2026-04-26 03:09 | 3.94915 | 73.62222 | 5311 ft | 284 kts | 270° |
| 2026-04-26 03:09 | 3.94911 | 73.60257 | 5271 ft | 280 kts | 270° |
| 2026-04-26 03:10 | 3.94907 | 73.58328 | 5223 ft | 272 kts | 270° |
| 2026-04-26 03:10 | 3.94903 | 73.56473 | 5132 ft | 261 kts | 271° |
| 2026-04-26 03:10 | 3.95251 | 73.54767 | 5035 ft | 249 kts | 298° |
| 2026-04-26 03:10 | 3.96321 | 73.53485 | 4762 ft | 237 kts | 329° |
| 2026-04-26 03:11 | 3.97844 | 73.52931 | 4281 ft | 233 kts | 360° |
| 2026-04-26 03:11 | 3.99464 | 73.52974 | 3786 ft | 234 kts | 4° |
| 2026-04-26 03:11 | 4.01094 | 73.53054 | 3336 ft | 235 kts | 3° |
| 2026-04-26 03:11 | 4.02719 | 73.53091 | 2987 ft | 230 kts | 1° |
| 2026-04-26 03:12 | 4.04295 | 73.53098 | 2714 ft | 222 kts | 0° |
| 2026-04-26 03:12 | 4.05822 | 73.53100 | 2453 ft | 219 kts | 0° |
| 2026-04-26 03:12 | 4.07265 | 73.53100 | 2190 ft | 194 kts | 0° |
| 2026-04-26 03:12 | 4.08560 | 73.53100 | 1928 ft | 179 kts | 360° |
| 2026-04-26 03:13 | 4.09759 | 73.53100 | 1701 ft | 162 kts | 360° |
| 2026-04-26 03:13 | 4.10847 | 73.53100 | 1501 ft | 151 kts | 360° |
| 2026-04-26 03:13 | 4.11895 | 73.53100 | 1311 ft | 149 kts | 360° |
| 2026-04-26 03:13 | 4.12933 | 73.53107 | 1119 ft | 149 kts | 1° |
| 2026-04-26 03:14 | 4.13970 | 73.53120 | 945 ft | 149 kts | 359° |
| 2026-04-26 03:14 | 4.14653 | 73.53109 | 817 ft | 149 kts | 359° |
| 2026-04-26 03:14 | 4.15691 | 73.53098 | 607 ft | 147 kts | 359° |
| 2026-04-26 03:14 | 4.16718 | 73.53091 | 408 ft | 147 kts | 359° |
| 2026-04-26 03:15 | 4.17741 | 73.53098 | 199 ft | 146 kts | 360° |
| 2026-04-26 03:15 | 4.18759 | 73.53105 | 40 ft | 143 kts | 359° |
| 2026-04-26 03:15 | 4.19627 | 73.53102 | 22 ft | 98 kts | 360° |
| 2026-04-26 03:15 | 4.20061 | 73.53102 | 22 ft | 46 kts | 0° |
| 2026-04-26 03:16 | 4.20306 | 73.53101 | 23 ft | 20 kts | 357° |
| 2026-04-26 03:16 | 4.20368 | 73.53036 | 26 ft | 14 kts | 270° |
| 2026-04-26 03:16 | 4.20359 | 73.52930 | 24 ft | 14 kts | 236° |
| 2026-04-26 03:16 | 4.20269 | 73.52898 | 24 ft | 15 kts | 179° |
| 2026-04-26 03:17 | 4.20153 | 73.52900 | 25 ft | 18 kts | 179° |
| 2026-04-26 03:17 | 4.20025 | 73.52901 | 25 ft | 19 kts | 179° |
| 2026-04-26 03:17 | 4.19886 | 73.52904 | 24 ft | 20 kts | 178° |
| 2026-04-26 03:17 | 4.19741 | 73.52908 | 24 ft | 21 kts | 178° |
| 2026-04-26 03:18 | 4.19593 | 73.52911 | 21 ft | 21 kts | 181° |
| 2026-04-26 03:18 | 4.19443 | 73.52910 | 21 ft | 22 kts | 179° |
| 2026-04-26 03:18 | 4.19292 | 73.52913 | 22 ft | 22 kts | 179° |
| 2026-04-26 03:18 | 4.19142 | 73.52917 | 26 ft | 22 kts | 179° |
| 2026-04-26 03:19 | 4.18983 | 73.52918 | 25 ft | 23 kts | 179° |
| 2026-04-26 03:19 | 4.18822 | 73.52920 | 25 ft | 24 kts | 179° |
| 2026-04-26 03:19 | 4.18652 | 73.52926 | 22 ft | 25 kts | 177° |
| 2026-04-26 03:19 | 4.18523 | 73.52929 | 23 ft | 0 kts | 199° |
| 2026-04-26 03:20 | 4.18505 | 73.52915 | 26 ft | 6 kts | 237° |
| 2026-04-26 03:20 | 4.18479 | 73.52864 | 23 ft | 11 kts | 242° |
| 2026-04-26 03:20 | 4.18456 | 73.52786 | 21 ft | 6 kts | 272° |
| 2026-04-26 03:20 | 4.18457 | 73.52767 | 21 ft | 0 kts | 270° |